TAF Text Data
IDs:
Format:
Raw Decoded Include METAR

Data at: 1403 UTC 27 Nov 2021

KMHT 271125Z 2712/2812 28013G23KT P6SM BKN030
  FM271400 29016G24KT P6SM OVC050
  FM272000 29017G25KT P6SM SKC
  FM280400 28008KT P6SM SKC